createdAt,value
2018-09-27T00:01:35.706Z,22.00
2018-09-27T00:04:04.025Z,22.00
2018-09-27T00:06:32.287Z,22.00
2018-09-27T00:09:00.604Z,22.00
2018-09-27T00:11:28.874Z,22.00
2018-09-27T00:13:57.219Z,22.00
2018-09-27T00:16:25.520Z,22.00
2018-09-27T00:18:53.791Z,22.00
2018-09-27T00:21:22.066Z,22.00
2018-09-27T00:23:50.510Z,22.00
2018-09-27T00:26:18.816Z,22.00
2018-09-27T00:28:47.095Z,22.00
2018-09-27T00:31:15.358Z,22.00
2018-09-27T00:33:43.637Z,22.00
2018-09-27T00:36:11.913Z,22.00
2018-09-27T00:38:40.287Z,22.00
2018-09-27T00:41:08.772Z,22.00
2018-09-27T00:43:37.068Z,22.00
2018-09-27T00:46:05.614Z,22.00
2018-09-27T00:48:33.942Z,22.00
2018-09-27T00:51:02.781Z,22.00
2018-09-27T00:53:31.107Z,22.00
2018-09-27T00:55:59.446Z,22.00
2018-09-27T00:58:27.811Z,22.00
2018-09-27T01:00:56.354Z,22.00
2018-09-27T01:03:24.715Z,22.00
2018-09-27T01:05:53.063Z,22.00
2018-09-27T01:08:21.543Z,22.00
2018-09-27T01:10:49.942Z,22.00
2018-09-27T01:13:18.286Z,22.00
2018-09-27T01:15:46.633Z,22.00
2018-09-27T01:18:14.987Z,22.00
2018-09-27T01:20:43.335Z,22.00
2018-09-27T01:23:11.749Z,22.00
2018-09-27T01:25:40.187Z,22.00
2018-09-27T01:28:08.555Z,22.00
2018-09-27T01:30:36.911Z,22.00
2018-09-27T01:33:05.271Z,22.00
2018-09-27T01:35:33.631Z,22.00
2018-09-27T01:38:01.977Z,22.00
2018-09-27T01:40:30.331Z,22.00
2018-09-27T01:42:58.662Z,21.90
2018-09-27T01:45:27.018Z,21.90
2018-09-27T01:47:55.351Z,21.90
2018-09-27T01:50:23.719Z,21.90
2018-09-27T01:52:52.063Z,21.90
2018-09-27T01:55:20.454Z,21.90
2018-09-27T01:57:48.934Z,21.90
2018-09-27T02:00:17.377Z,21.90
2018-09-27T02:02:45.744Z,21.90
2018-09-27T02:05:14.072Z,21.90
2018-09-27T02:07:42.435Z,21.90
2018-09-27T02:10:10.775Z,21.90
2018-09-27T02:12:39.120Z,21.80
2018-09-27T02:15:11.462Z,21.80
2018-09-27T02:17:39.821Z,21.80
2018-09-27T02:20:08.158Z,21.80
2018-09-27T02:22:36.516Z,21.80
2018-09-27T02:25:04.999Z,21.90
2018-09-27T02:27:33.338Z,21.80
2018-09-27T02:30:01.687Z,21.80
2018-09-27T02:32:30.022Z,21.80
2018-09-27T02:34:58.373Z,21.80
2018-09-27T02:37:26.715Z,21.80
2018-09-27T02:39:55.111Z,21.80
2018-09-27T02:42:23.447Z,21.80
2018-09-27T02:44:52.091Z,21.80
2018-09-27T02:47:20.931Z,21.80
2018-09-27T02:49:49.287Z,21.80
2018-09-27T02:52:17.640Z,21.80
2018-09-27T02:54:46.010Z,21.80
2018-09-27T02:57:14.376Z,21.80
2018-09-27T02:59:42.723Z,21.70
2018-09-27T03:02:11.167Z,21.80
2018-09-27T03:04:39.507Z,21.80
2018-09-27T03:07:08.048Z,21.80
2018-09-27T03:09:36.393Z,21.80
2018-09-27T03:12:04.746Z,21.80
2018-09-27T03:14:33.090Z,21.80
2018-09-27T03:17:01.424Z,21.80
2018-09-27T03:19:29.775Z,21.70
2018-09-27T03:21:58.135Z,21.70
2018-09-27T03:24:26.466Z,21.80
2018-09-27T03:26:54.806Z,21.80
2018-09-27T03:29:23.143Z,21.70
2018-09-27T03:31:51.503Z,21.70
2018-09-27T03:34:19.851Z,21.70
2018-09-27T03:36:48.179Z,21.70
2018-09-27T03:39:16.536Z,21.70
2018-09-27T03:41:44.888Z,21.70
2018-09-27T03:44:13.247Z,21.70
2018-09-27T03:46:41.631Z,21.70
2018-09-27T03:49:09.979Z,21.70
2018-09-27T03:51:38.328Z,21.70
2018-09-27T03:54:06.679Z,21.70
2018-09-27T03:56:35.057Z,21.70
2018-09-27T03:59:03.959Z,21.70
2018-09-27T04:01:32.315Z,21.70
2018-09-27T04:04:00.679Z,21.70
2018-09-27T04:06:29.015Z,21.70
2018-09-27T04:08:57.384Z,21.70
2018-09-27T04:11:25.726Z,21.70
2018-09-27T04:13:54.067Z,21.70
2018-09-27T04:16:22.407Z,21.70
2018-09-27T04:18:50.766Z,21.70
2018-09-27T04:21:19.123Z,21.70
2018-09-27T04:23:47.584Z,21.70
2018-09-27T04:26:15.931Z,21.70
2018-09-27T04:28:44.283Z,21.70
2018-09-27T04:31:12.640Z,21.70
2018-09-27T04:33:41.034Z,21.70
2018-09-27T04:36:09.369Z,21.70
2018-09-27T04:38:37.718Z,21.60
2018-09-27T04:41:06.484Z,21.70
2018-09-27T04:43:34.972Z,21.60
2018-09-27T04:46:03.385Z,21.60
2018-09-27T04:48:31.847Z,21.60
2018-09-27T04:51:00.207Z,21.60
2018-09-27T04:53:28.544Z,21.60
2018-09-27T04:55:56.879Z,21.70
2018-09-27T04:58:25.244Z,21.60
2018-09-27T05:00:53.588Z,21.70
2018-09-27T05:03:21.918Z,21.60
2018-09-27T05:05:50.360Z,21.70
2018-09-27T05:08:18.719Z,21.60
2018-09-27T05:10:47.203Z,21.60
2018-09-27T05:13:15.561Z,21.60
2018-09-27T05:15:43.994Z,21.60
2018-09-27T05:18:12.379Z,21.70
2018-09-27T05:20:40.848Z,21.60
2018-09-27T05:23:09.199Z,21.60
2018-09-27T05:25:37.533Z,21.60
2018-09-27T05:28:05.895Z,21.60
2018-09-27T05:30:34.233Z,21.60
2018-09-27T05:33:02.638Z,21.60
2018-09-27T05:35:30.963Z,21.60
2018-09-27T05:37:59.322Z,21.60
2018-09-27T05:40:27.770Z,21.60
2018-09-27T05:42:56.112Z,21.60
2018-09-27T05:45:24.541Z,21.60
2018-09-27T05:47:52.887Z,21.60
2018-09-27T05:50:21.292Z,21.60
2018-09-27T05:52:49.628Z,21.60
2018-09-27T05:55:17.991Z,21.60
2018-09-27T05:57:46.324Z,21.60
2018-09-27T06:00:14.723Z,21.60
2018-09-27T06:02:43.072Z,21.60
2018-09-27T06:05:11.417Z,21.60
2018-09-27T06:07:39.804Z,21.60
2018-09-27T06:10:08.160Z,21.60
2018-09-27T06:12:36.593Z,21.60
2018-09-27T06:15:05.661Z,21.60
2018-09-27T06:17:34.008Z,21.60
2018-09-27T06:20:02.358Z,21.60
2018-09-27T06:22:30.720Z,21.60
2018-09-27T06:24:59.062Z,21.50
2018-09-27T06:27:27.455Z,21.60
2018-09-27T06:29:55.815Z,21.50
2018-09-27T06:32:24.263Z,21.60
2018-09-27T06:34:52.605Z,21.60
2018-09-27T06:37:20.972Z,21.60
2018-09-27T06:39:49.312Z,21.60
2018-09-27T06:42:17.635Z,21.50
2018-09-27T06:44:46.001Z,21.50
2018-09-27T06:47:14.334Z,21.50
2018-09-27T06:49:42.691Z,21.50
2018-09-27T06:52:11.035Z,21.50
2018-09-27T06:54:39.413Z,21.60
2018-09-27T06:57:07.808Z,21.60
2018-09-27T06:59:36.159Z,21.60
2018-09-27T07:02:04.499Z,21.60
2018-09-27T07:04:32.856Z,21.50
2018-09-27T07:07:01.189Z,21.50
2018-09-27T07:09:29.555Z,21.60
2018-09-27T07:11:57.909Z,21.60
2018-09-27T07:14:26.270Z,21.60
2018-09-27T07:16:54.602Z,21.60
2018-09-27T07:19:22.936Z,21.60
2018-09-27T07:21:51.276Z,21.60
2018-09-27T07:24:19.622Z,21.60
2018-09-27T07:26:48.917Z,21.60
2018-09-27T07:29:17.163Z,21.70
2018-09-27T07:31:45.536Z,21.70
2018-09-27T07:34:14.026Z,21.70
2018-09-27T07:36:42.558Z,21.70
2018-09-27T07:39:11.922Z,21.70
2018-09-27T07:41:40.520Z,21.70
2018-09-27T07:44:09.657Z,21.70
2018-09-27T07:46:38.194Z,21.70
2018-09-27T07:49:06.674Z,21.80
2018-09-27T07:51:35.063Z,21.80
2018-09-27T07:54:03.471Z,21.70
2018-09-27T07:56:31.918Z,21.50
2018-09-27T07:59:00.279Z,21.50
2018-09-27T08:01:28.639Z,21.60
2018-09-27T08:03:57.015Z,21.70
2018-09-27T08:06:25.443Z,21.70
2018-09-27T08:08:53.823Z,21.80
2018-09-27T08:11:22.216Z,21.80
2018-09-27T08:13:50.587Z,21.90
2018-09-27T08:16:19.021Z,21.90
2018-09-27T08:18:47.373Z,21.90
2018-09-27T08:21:15.919Z,22.00
2018-09-27T08:23:44.131Z,22.00
2018-09-27T08:26:12.486Z,22.00
2018-09-27T08:28:40.827Z,22.00
2018-09-27T08:31:09.221Z,22.10
2018-09-27T08:33:37.755Z,22.10
2018-09-27T08:36:06.082Z,22.10
2018-09-27T08:38:34.444Z,22.20
2018-09-27T08:41:02.790Z,22.20
2018-09-27T08:43:31.160Z,22.30
2018-09-27T08:45:59.547Z,22.30
2018-09-27T08:48:27.944Z,22.40
2018-09-27T08:50:56.355Z,22.40
2018-09-27T08:53:24.719Z,22.50
2018-09-27T08:55:53.199Z,22.40
2018-09-27T08:58:21.550Z,22.50
2018-09-27T09:00:50.007Z,22.60
2018-09-27T09:03:18.679Z,22.50
2018-09-27T09:05:47.213Z,22.60
2018-09-27T09:08:16.444Z,22.60
2018-09-27T09:10:44.816Z,22.60
2018-09-27T09:13:13.224Z,22.60
2018-09-27T09:15:41.740Z,22.70
2018-09-27T09:18:10.020Z,22.70
2018-09-27T09:20:38.407Z,22.70
2018-09-27T09:23:06.988Z,22.80
2018-09-27T09:25:35.413Z,22.90
2018-09-27T09:28:03.839Z,22.90
2018-09-27T09:30:32.307Z,22.90
2018-09-27T09:33:00.692Z,23.00
2018-09-27T09:35:29.123Z,23.00
2018-09-27T09:37:57.495Z,23.00
2018-09-27T09:40:25.927Z,23.10
2018-09-27T09:42:54.307Z,23.10
2018-09-27T09:45:22.792Z,23.20
2018-09-27T09:47:51.187Z,23.20
2018-09-27T09:50:19.583Z,23.20
2018-09-27T09:52:47.979Z,23.20
2018-09-27T09:55:16.379Z,23.10
2018-09-27T09:57:44.784Z,23.20
2018-09-27T10:00:13.163Z,23.10
2018-09-27T10:02:41.580Z,23.20
2018-09-27T10:05:10.047Z,23.20
2018-09-27T10:07:38.431Z,23.20
2018-09-27T10:10:06.893Z,23.20
2018-09-27T10:12:35.286Z,23.30
2018-09-27T10:15:03.736Z,23.40
2018-09-27T10:17:32.135Z,23.30
2018-09-27T10:20:00.522Z,23.40
2018-09-27T10:22:28.992Z,23.40
2018-09-27T10:24:57.407Z,23.40
2018-09-27T10:27:25.858Z,23.40
2018-09-27T10:29:54.263Z,23.40
2018-09-27T10:32:22.975Z,23.40
2018-09-27T10:34:51.351Z,23.40
2018-09-27T10:37:19.814Z,23.40
2018-09-27T10:39:48.234Z,23.50
2018-09-27T10:42:16.620Z,23.50
2018-09-27T10:44:45.125Z,23.50
2018-09-27T10:47:13.643Z,23.50
2018-09-27T10:49:42.258Z,23.50
2018-09-27T10:52:10.662Z,23.50
2018-09-27T10:54:39.203Z,23.50
2018-09-27T10:57:07.632Z,23.50
2018-09-27T10:59:36.083Z,23.50
2018-09-27T11:02:04.433Z,23.60
2018-09-27T11:04:32.908Z,23.60
2018-09-27T11:07:01.968Z,23.60
2018-09-27T11:09:34.744Z,23.70
2018-09-27T11:12:03.761Z,23.70
2018-09-27T11:14:32.163Z,23.70
2018-09-27T11:17:00.559Z,23.60
2018-09-27T11:19:28.939Z,23.60
2018-09-27T11:21:57.404Z,23.70
2018-09-27T11:24:25.799Z,23.70
2018-09-27T11:26:54.179Z,23.80
2018-09-27T11:29:27.866Z,23.80
2018-09-27T11:32:01.687Z,23.80
2018-09-27T11:34:30.087Z,23.80
2018-09-27T11:36:58.465Z,23.90
2018-09-27T11:39:26.865Z,23.90
2018-09-27T11:41:55.242Z,23.90
2018-09-27T11:44:24.019Z,23.90
2018-09-27T11:46:52.638Z,23.90
2018-09-27T11:49:21.628Z,23.90
2018-09-27T11:51:53.662Z,23.90
2018-09-27T11:54:25.541Z,23.90
2018-09-27T11:56:54.023Z,24.00
2018-09-27T11:59:22.596Z,23.90
2018-09-27T12:01:50.943Z,24.00
2018-09-27T12:04:19.341Z,24.00
2018-09-27T12:06:47.753Z,24.00
2018-09-27T12:09:16.204Z,24.00
2018-09-27T12:11:44.575Z,24.00
2018-09-27T12:14:13.646Z,24.00
2018-09-27T12:16:48.521Z,22.80
2018-09-27T12:19:25.030Z,24.00
2018-09-27T12:21:55.435Z,24.00
2018-09-27T12:24:23.947Z,24.00
2018-09-27T12:26:52.736Z,24.00
2018-09-27T12:29:21.152Z,24.00
2018-09-27T12:31:49.575Z,24.00
2018-09-27T12:34:18.079Z,24.00
2018-09-27T12:36:49.442Z,24.00
2018-09-27T12:39:18.131Z,24.00
2018-09-27T12:41:47.162Z,24.00
2018-09-27T12:44:15.573Z,24.00
2018-09-27T12:46:44.011Z,24.00
2018-09-27T12:49:12.380Z,24.00
2018-09-27T12:51:40.866Z,24.10
2018-09-27T12:54:09.150Z,24.00
2018-09-27T12:56:37.527Z,24.10
2018-09-27T12:59:06.323Z,24.10
2018-09-27T13:01:34.716Z,24.10
2018-09-27T13:04:03.164Z,24.10
2018-09-27T13:06:31.501Z,24.10
2018-09-27T13:09:00.844Z,24.10
2018-09-27T13:11:29.199Z,24.10
2018-09-27T13:13:57.588Z,24.10
2018-09-27T13:16:26.021Z,24.20
2018-09-27T13:18:57.939Z,24.20
2018-09-27T13:21:22.847Z,24.20
2018-09-27T13:23:51.231Z,24.30
2018-09-27T13:26:19.612Z,24.30
2018-09-27T13:28:48.016Z,24.40
2018-09-27T13:31:16.578Z,24.30
2018-09-27T13:33:45.331Z,24.40
2018-09-27T13:36:13.943Z,24.40
2018-09-27T13:38:42.736Z,24.40
2018-09-27T13:41:11.119Z,24.40
2018-09-27T13:43:39.524Z,24.40
2018-09-27T13:46:07.935Z,24.40
2018-09-27T13:48:36.552Z,24.30
2018-09-27T13:51:05.051Z,24.20
2018-09-27T13:53:33.408Z,24.20
2018-09-27T13:56:02.015Z,24.10
2018-09-27T13:58:30.411Z,24.10
2018-09-27T14:00:58.890Z,24.00
2018-09-27T14:03:27.214Z,24.00
2018-09-27T14:05:55.940Z,24.00
2018-09-27T14:08:24.710Z,24.10
2018-09-27T14:10:53.589Z,24.10
2018-09-27T14:13:21.980Z,24.10
2018-09-27T14:15:50.427Z,24.10
2018-09-27T14:18:18.828Z,24.10
2018-09-27T14:20:47.209Z,24.10
2018-09-27T14:23:15.599Z,24.10
2018-09-27T14:25:44.456Z,24.00
2018-09-27T14:28:13.032Z,24.00
2018-09-27T14:30:41.562Z,24.00
2018-09-27T14:33:09.947Z,23.90
2018-09-27T14:35:38.408Z,23.90
2018-09-27T14:38:06.778Z,23.80
2018-09-27T14:40:35.140Z,23.90
2018-09-27T14:43:03.573Z,23.80
2018-09-27T14:45:32.028Z,23.80
2018-09-27T14:48:00.567Z,23.80
2018-09-27T14:50:28.994Z,23.80
2018-09-27T14:52:57.669Z,23.80
2018-09-27T14:55:26.235Z,23.80
2018-09-27T14:57:55.022Z,23.70
2018-09-27T15:00:23.810Z,23.70
2018-09-27T15:02:52.280Z,23.70
2018-09-27T15:05:20.691Z,23.70
2018-09-27T15:07:49.095Z,23.70
2018-09-27T15:10:17.551Z,23.70
2018-09-27T15:12:46.113Z,23.60
2018-09-27T15:15:14.468Z,23.50
2018-09-27T15:17:42.984Z,23.40
2018-09-27T15:20:11.440Z,23.40
2018-09-27T15:22:39.895Z,23.40
2018-09-27T15:25:08.302Z,23.40
2018-09-27T15:27:37.017Z,23.50
2018-09-27T15:30:05.748Z,23.40
2018-09-27T15:32:34.134Z,23.40
2018-09-27T15:35:02.693Z,23.50
2018-09-27T15:37:31.126Z,23.50
2018-09-27T15:39:59.637Z,23.40
2018-09-27T15:42:28.038Z,23.40
2018-09-27T15:44:56.441Z,23.40
2018-09-27T15:47:24.875Z,23.40
2018-09-27T15:49:53.266Z,23.40
2018-09-27T15:52:21.732Z,23.40
2018-09-27T15:54:50.185Z,23.40
2018-09-27T15:57:20.395Z,23.40
2018-09-27T15:59:50.558Z,23.40
2018-09-27T16:02:19.087Z,23.40
2018-09-27T16:04:47.619Z,23.30
2018-09-27T16:07:16.069Z,23.30
2018-09-27T16:09:44.648Z,23.30
2018-09-27T16:12:13.146Z,23.30
2018-09-27T16:14:41.644Z,23.30
2018-09-27T16:17:10.011Z,23.30
2018-09-27T16:19:38.416Z,23.30
2018-09-27T16:22:07.085Z,23.30
2018-09-27T16:24:37.195Z,23.30
2018-09-27T16:27:07.093Z,23.20
2018-09-27T16:29:35.980Z,23.30
2018-09-27T16:32:04.921Z,23.20
2018-09-27T16:34:34.294Z,23.20
2018-09-27T16:37:03.389Z,23.20
2018-09-27T16:39:32.278Z,23.20
2018-09-27T16:42:00.760Z,23.20
2018-09-27T16:44:30.010Z,23.20
2018-09-27T16:46:59.363Z,23.20
2018-09-27T16:49:28.544Z,23.20
2018-09-27T16:51:57.130Z,23.10
2018-09-27T16:54:25.932Z,23.20
2018-09-27T16:56:54.428Z,23.20
2018-09-27T16:59:23.147Z,23.20
2018-09-27T17:01:51.971Z,23.20
2018-09-27T17:04:20.422Z,23.20
2018-09-27T17:06:48.992Z,23.20
2018-09-27T17:09:17.869Z,23.20
2018-09-27T17:11:46.266Z,23.20
2018-09-27T17:14:14.820Z,23.20
2018-09-27T17:16:43.320Z,23.20
2018-09-27T17:19:11.673Z,23.20
2018-09-27T17:21:40.052Z,23.20
2018-09-27T17:24:08.692Z,23.30
2018-09-27T17:26:37.096Z,23.40
2018-09-27T17:29:05.763Z,23.40
2018-09-27T17:31:34.281Z,23.30
2018-09-27T17:34:02.623Z,23.30
2018-09-27T17:36:31.029Z,23.30
2018-09-27T17:38:59.556Z,23.20
2018-09-27T17:41:27.957Z,23.20
2018-09-27T17:43:56.992Z,23.20
2018-09-27T17:46:25.413Z,23.20
2018-09-27T17:48:53.895Z,23.20
2018-09-27T17:51:22.295Z,23.20
2018-09-27T17:53:50.679Z,23.20
2018-09-27T17:56:19.085Z,23.20
2018-09-27T17:58:47.509Z,23.20
2018-09-27T18:01:15.959Z,23.20
2018-09-27T18:03:44.693Z,23.20
2018-09-27T18:06:13.137Z,23.20
2018-09-27T18:08:41.575Z,23.20
2018-09-27T18:11:10.294Z,23.20
2018-09-27T18:13:38.753Z,23.20
2018-09-27T18:16:07.130Z,23.20
2018-09-27T18:18:35.568Z,23.20
2018-09-27T18:21:03.967Z,23.20
2018-09-27T18:23:32.368Z,23.20
2018-09-27T18:26:00.788Z,23.20
2018-09-27T18:28:29.255Z,23.20
2018-09-27T18:30:57.780Z,23.20
2018-09-27T18:33:26.208Z,23.20
2018-09-27T18:35:54.715Z,23.20
2018-09-27T18:38:23.115Z,23.20
2018-09-27T18:40:51.592Z,23.20
2018-09-27T18:43:20.160Z,23.20
2018-09-27T18:45:48.514Z,23.10
2018-09-27T18:48:16.907Z,23.20
2018-09-27T18:50:45.420Z,23.10
2018-09-27T18:53:13.858Z,23.10
2018-09-27T18:55:42.362Z,23.10
2018-09-27T18:58:10.829Z,23.10
2018-09-27T19:00:39.240Z,23.10
2018-09-27T19:03:07.696Z,23.10
2018-09-27T19:05:36.143Z,23.10
2018-09-27T19:08:04.684Z,23.10
2018-09-27T19:10:33.133Z,23.10
2018-09-27T19:13:01.696Z,23.10
2018-09-27T19:15:30.191Z,23.10
2018-09-27T19:17:58.868Z,23.10
2018-09-27T19:20:27.289Z,23.10
2018-09-27T19:22:55.696Z,23.10
2018-09-27T19:25:24.123Z,23.10
2018-09-27T19:27:52.604Z,23.10
2018-09-27T19:30:21.321Z,23.10
2018-09-27T19:32:49.799Z,23.10
2018-09-27T19:35:18.393Z,23.00
2018-09-27T19:37:46.782Z,23.00
2018-09-27T19:40:15.206Z,23.00
2018-09-27T19:42:43.632Z,23.00
2018-09-27T19:45:12.032Z,23.10
2018-09-27T19:47:40.422Z,23.10
2018-09-27T19:50:09.014Z,23.10
2018-09-27T19:52:37.958Z,23.00
2018-09-27T19:55:06.512Z,23.10
2018-09-27T19:57:34.964Z,23.00
2018-09-27T20:00:03.577Z,23.10
2018-09-27T20:02:32.032Z,23.00
2018-09-27T20:05:00.399Z,23.00
2018-09-27T20:07:28.820Z,23.00
2018-09-27T20:09:57.279Z,23.00
2018-09-27T20:12:25.845Z,23.00
2018-09-27T20:14:54.450Z,22.90
2018-09-27T20:17:22.918Z,23.00
2018-09-27T20:19:51.304Z,22.90
2018-09-27T20:22:19.819Z,22.90
2018-09-27T20:24:48.436Z,22.90
2018-09-27T20:27:16.850Z,22.90
2018-09-27T20:29:45.276Z,22.90
2018-09-27T20:32:13.733Z,22.90
2018-09-27T20:34:42.627Z,22.90
2018-09-27T20:37:11.004Z,22.90
2018-09-27T20:39:39.395Z,22.90
2018-09-27T20:42:07.847Z,22.90
2018-09-27T20:44:37.085Z,22.90
2018-09-27T20:47:05.538Z,22.90
2018-09-27T20:49:34.117Z,22.90
2018-09-27T20:52:02.595Z,22.90
2018-09-27T20:54:31.255Z,22.90
2018-09-27T20:56:59.689Z,22.80
2018-09-27T20:59:28.143Z,22.90
2018-09-27T21:01:56.615Z,22.80
2018-09-27T21:04:25.111Z,22.90
2018-09-27T21:06:53.623Z,22.90
2018-09-27T21:09:22.403Z,22.90
2018-09-27T21:11:50.811Z,22.90
2018-09-27T21:14:19.219Z,22.90
2018-09-27T21:16:49.766Z,22.80
2018-09-27T21:19:19.178Z,22.80
2018-09-27T21:21:47.599Z,22.80
2018-09-27T21:24:16.007Z,22.80
2018-09-27T21:26:44.513Z,22.80
2018-09-27T21:29:12.928Z,22.80
2018-09-27T21:31:41.370Z,22.80
2018-09-27T21:34:09.910Z,22.80
2018-09-27T21:36:38.370Z,22.80
2018-09-27T21:39:07.379Z,22.80
2018-09-27T21:41:35.789Z,22.80
2018-09-27T21:44:04.247Z,22.80
2018-09-27T21:46:32.636Z,22.80
2018-09-27T21:49:01.041Z,22.80
2018-09-27T21:51:29.629Z,22.80
2018-09-27T21:53:58.039Z,22.90
2018-09-27T21:56:26.488Z,22.90
2018-09-27T21:58:54.886Z,22.90
2018-09-27T22:01:23.275Z,22.90
2018-09-27T22:03:51.700Z,22.90
2018-09-27T22:06:20.175Z,22.90
2018-09-27T22:08:48.559Z,22.90
2018-09-27T22:11:17.029Z,22.90
2018-09-27T22:13:45.396Z,22.90
2018-09-27T22:16:13.879Z,22.90
2018-09-27T22:18:42.443Z,23.00
2018-09-27T22:21:10.922Z,22.90
2018-09-27T22:23:39.326Z,23.00
2018-09-27T22:26:07.743Z,23.00
2018-09-27T22:28:36.135Z,22.90
2018-09-27T22:31:04.501Z,22.90
2018-09-27T22:33:32.924Z,22.90
2018-09-27T22:36:01.413Z,23.00
2018-09-27T22:38:29.867Z,22.90
2018-09-27T22:40:58.249Z,22.90
2018-09-27T22:43:26.643Z,22.90
2018-09-27T22:45:55.200Z,22.90
2018-09-27T22:48:24.106Z,22.90
2018-09-27T22:50:52.937Z,22.90
2018-09-27T22:53:21.332Z,22.90
2018-09-27T22:55:49.784Z,23.00
2018-09-27T22:58:18.183Z,22.90
2018-09-27T23:00:46.579Z,22.90
2018-09-27T23:03:14.987Z,22.90
2018-09-27T23:05:43.387Z,22.90
2018-09-27T23:08:11.760Z,22.90
2018-09-27T23:10:40.308Z,22.90
2018-09-27T23:13:08.845Z,22.90
2018-09-27T23:15:37.393Z,22.90
2018-09-27T23:18:05.764Z,22.90
2018-09-27T23:20:34.158Z,22.90
2018-09-27T23:23:02.527Z,22.90
2018-09-27T23:25:30.995Z,22.90
2018-09-27T23:27:59.408Z,22.90
2018-09-27T23:30:27.804Z,22.90
2018-09-27T23:32:56.279Z,22.90
2018-09-27T23:35:24.755Z,22.90
2018-09-27T23:37:53.220Z,22.90
2018-09-27T23:40:21.612Z,22.90
2018-09-27T23:42:50.069Z,22.90
2018-09-27T23:45:18.466Z,22.90
2018-09-27T23:47:46.841Z,22.90
2018-09-27T23:50:15.231Z,22.90
2018-09-27T23:52:43.636Z,22.90
2018-09-27T23:55:12.030Z,22.90
2018-09-27T23:57:40.435Z,22.90
